createdAt,value
2018-06-27T00:00:46.400Z,1009.76
2018-06-27T00:01:46.420Z,1009.72
2018-06-27T00:02:46.451Z,1009.68
2018-06-27T00:03:46.470Z,1009.70
2018-06-27T00:04:46.492Z,1009.67
2018-06-27T00:05:46.516Z,1009.67
2018-06-27T00:06:46.539Z,1009.66
2018-06-27T00:07:46.569Z,1009.64
2018-06-27T00:08:46.591Z,1009.64
2018-06-27T00:09:46.616Z,1009.60
2018-06-27T00:10:46.638Z,1009.59
2018-06-27T00:11:46.664Z,1009.57
2018-06-27T00:12:46.685Z,1009.58
2018-06-27T00:13:46.710Z,1009.57
2018-06-27T00:14:46.733Z,1009.55
2018-06-27T00:15:46.759Z,1009.57
2018-06-27T00:16:46.780Z,1009.56
2018-06-27T00:17:46.810Z,1009.56
2018-06-27T00:18:46.831Z,1009.58
2018-06-27T00:19:46.851Z,1009.55
2018-06-27T00:20:46.876Z,1009.54
2018-06-27T00:21:46.914Z,1009.55
2018-06-27T00:22:46.922Z,1009.57
2018-06-27T00:23:46.945Z,1009.54
2018-06-27T00:24:46.973Z,1009.60
2018-06-27T00:25:46.991Z,1009.60
2018-06-27T00:26:47.020Z,1009.61
2018-06-27T00:27:47.040Z,1009.63
2018-06-27T00:28:47.068Z,1009.62
2018-06-27T00:29:47.089Z,1009.61
2018-06-27T00:30:47.114Z,1009.63
2018-06-27T00:31:47.137Z,1009.62
2018-06-27T00:32:47.161Z,1009.66
2018-06-27T00:33:47.196Z,1009.63
2018-06-27T00:34:47.209Z,1009.65
2018-06-27T00:35:47.232Z,1009.61
2018-06-27T00:36:47.254Z,1009.61
2018-06-27T00:37:47.279Z,1009.62
2018-06-27T00:38:47.305Z,1009.63
2018-06-27T00:39:47.334Z,1009.64
2018-06-27T00:40:47.351Z,1009.62
2018-06-27T00:41:47.373Z,1009.60
2018-06-27T00:42:47.397Z,1009.61
2018-06-27T00:43:47.420Z,1009.62
2018-06-27T00:44:47.447Z,1009.61
2018-06-27T00:45:47.479Z,1009.59
2018-06-27T00:46:47.511Z,1009.57
2018-06-27T00:47:47.513Z,1009.61
2018-06-27T00:48:47.544Z,1009.62
2018-06-27T00:49:47.568Z,1009.59
2018-06-27T00:50:47.588Z,1009.56
2018-06-27T00:51:47.611Z,1009.56
2018-06-27T00:52:47.631Z,1009.55
2018-06-27T00:53:47.654Z,1009.54
2018-06-27T00:54:47.673Z,1009.52
2018-06-27T00:55:47.708Z,1009.53
2018-06-27T00:56:47.726Z,1009.55
2018-06-27T00:57:47.760Z,1009.57
2018-06-27T00:58:47.774Z,1009.60
2018-06-27T00:59:47.794Z,1009.61
2018-06-27T01:00:47.818Z,1009.57
2018-06-27T01:01:47.846Z,1009.55
2018-06-27T01:02:47.868Z,1009.50
2018-06-27T01:03:47.895Z,1009.54
2018-06-27T01:04:47.914Z,1009.51
2018-06-27T01:05:47.936Z,1009.52
2018-06-27T01:06:47.959Z,1009.50
2018-06-27T01:07:47.985Z,1009.46
2018-06-27T01:08:48.008Z,1009.45
2018-06-27T01:09:48.033Z,1009.46
2018-06-27T01:10:48.061Z,1009.48
2018-06-27T01:11:48.078Z,1009.48
2018-06-27T01:12:48.106Z,1009.44
2018-06-27T01:13:48.126Z,1009.44
2018-06-27T01:14:48.148Z,1009.41
2018-06-27T01:15:48.168Z,1009.43
2018-06-27T01:16:48.196Z,1009.46
2018-06-27T01:17:48.221Z,1009.47
2018-06-27T01:18:48.245Z,1009.47
2018-06-27T01:19:48.267Z,1009.52
2018-06-27T01:20:48.288Z,1009.49
2018-06-27T01:21:48.314Z,1009.52
2018-06-27T01:22:48.343Z,1009.52
2018-06-27T01:23:48.356Z,1009.55
2018-06-27T01:24:48.386Z,1009.56
2018-06-27T01:25:48.407Z,1009.58
2018-06-27T01:26:48.431Z,1009.52
2018-06-27T01:27:48.453Z,1009.53
2018-06-27T01:28:48.477Z,1009.52
2018-06-27T01:29:48.501Z,1009.51
2018-06-27T01:30:48.525Z,1009.53
2018-06-27T01:31:48.546Z,1009.55
2018-06-27T01:32:48.573Z,1009.51
2018-06-27T01:33:48.591Z,1009.49
2018-06-27T01:34:48.621Z,1009.49
2018-06-27T01:35:48.640Z,1009.50
2018-06-27T01:36:48.663Z,1009.51
2018-06-27T01:37:48.685Z,1009.46
2018-06-27T01:38:48.718Z,1009.48
2018-06-27T01:39:48.732Z,1009.49
2018-06-27T01:40:48.757Z,1009.42
2018-06-27T01:41:48.784Z,1009.43
2018-06-27T01:42:48.808Z,1009.45
2018-06-27T01:43:48.830Z,1009.47
2018-06-27T01:44:48.849Z,1009.47
2018-06-27T01:45:48.876Z,1009.51
2018-06-27T01:46:48.902Z,1009.48
2018-06-27T01:47:48.920Z,1009.52
2018-06-27T01:48:48.941Z,1009.49
2018-06-27T01:49:48.974Z,1009.49
2018-06-27T01:50:48.990Z,1009.54
2018-06-27T01:51:49.015Z,1009.54
2018-06-27T01:52:49.034Z,1009.56
2018-06-27T01:53:49.067Z,1009.56
2018-06-27T01:54:49.085Z,1009.53
2018-06-27T01:55:49.107Z,1009.54
2018-06-27T01:56:49.130Z,1009.55
2018-06-27T01:57:49.157Z,1009.54
2018-06-27T01:58:49.175Z,1009.52
2018-06-27T01:59:49.203Z,1009.51
2018-06-27T02:00:49.225Z,1009.54
2018-06-27T02:01:49.248Z,1009.51
2018-06-27T02:02:49.270Z,1009.51
2018-06-27T02:03:49.290Z,1009.52
2018-06-27T02:04:49.321Z,1009.53
2018-06-27T02:05:49.344Z,1009.56
2018-06-27T02:06:49.366Z,1009.58
2018-06-27T02:07:49.392Z,1009.56
2018-06-27T02:08:49.410Z,1009.59
2018-06-27T02:09:49.437Z,1009.57
2018-06-27T02:10:49.458Z,1009.57
2018-06-27T02:11:49.478Z,1009.55
2018-06-27T02:12:49.506Z,1009.56
2018-06-27T02:13:49.525Z,1009.54
2018-06-27T02:14:49.548Z,1009.55
2018-06-27T02:15:49.573Z,1009.57
2018-06-27T02:16:49.595Z,1009.56
2018-06-27T02:17:49.622Z,1009.56
2018-06-27T02:18:49.648Z,1009.51
2018-06-27T02:19:49.665Z,1009.56
2018-06-27T02:20:49.690Z,1009.57
2018-06-27T02:21:49.716Z,1009.56
2018-06-27T02:22:49.734Z,1009.58
2018-06-27T02:23:49.765Z,1009.59
2018-06-27T02:24:49.782Z,1009.62
2018-06-27T02:25:49.809Z,1009.61
2018-06-27T02:26:49.828Z,1009.62
2018-06-27T02:27:49.850Z,1009.58
2018-06-27T02:28:49.878Z,1009.60
2018-06-27T02:29:49.934Z,1009.64
2018-06-27T02:30:49.918Z,1009.59
2018-06-27T02:31:49.954Z,1009.57
2018-06-27T02:32:49.970Z,1009.65
2018-06-27T02:33:49.991Z,1009.63
2018-06-27T02:34:50.016Z,1009.64
2018-06-27T02:35:50.036Z,1009.62
2018-06-27T02:36:50.053Z,1009.65
2018-06-27T02:37:50.083Z,1009.61
2018-06-27T02:38:50.111Z,1009.62
2018-06-27T02:39:50.130Z,1009.60
2018-06-27T02:40:50.152Z,1009.66
2018-06-27T02:41:50.177Z,1009.67
2018-06-27T02:42:50.200Z,1009.68
2018-06-27T02:43:50.228Z,1009.71
2018-06-27T02:44:50.248Z,1009.74
2018-06-27T02:45:50.268Z,1009.69
2018-06-27T02:46:50.289Z,1009.71
2018-06-27T02:47:50.318Z,1009.74
2018-06-27T02:48:50.340Z,1009.73
2018-06-27T02:49:50.424Z,1009.77
2018-06-27T02:50:50.426Z,1009.76
2018-06-27T02:51:50.407Z,1009.83
2018-06-27T02:52:50.433Z,1009.87
2018-06-27T02:53:50.454Z,1009.92
2018-06-27T02:54:50.486Z,1009.92
2018-06-27T02:55:50.499Z,1009.96
2018-06-27T02:56:50.525Z,1009.97
2018-06-27T02:57:50.548Z,1009.94
2018-06-27T02:58:50.582Z,1009.92
2018-06-27T02:59:50.591Z,1009.98
2018-06-27T03:00:50.611Z,1009.98
2018-06-27T03:01:50.635Z,1009.94
2018-06-27T03:02:50.670Z,1009.99
2018-06-27T03:03:50.685Z,1010.01
2018-06-27T03:04:50.710Z,1010.01
2018-06-27T03:05:50.731Z,1010.06
2018-06-27T03:06:50.759Z,1010.04
2018-06-27T03:07:50.782Z,1010.05
2018-06-27T03:08:50.801Z,1010.08
2018-06-27T03:09:50.822Z,1010.06
2018-06-27T03:10:50.843Z,1010.06
2018-06-27T03:11:50.871Z,1010.05
2018-06-27T03:12:50.888Z,1010.08
2018-06-27T03:13:50.916Z,1010.08
2018-06-27T03:14:50.933Z,1010.11
2018-06-27T03:15:50.962Z,1010.09
2018-06-27T03:16:50.999Z,1010.08
2018-06-27T03:17:51.015Z,1010.09
2018-06-27T03:18:51.038Z,1010.09
2018-06-27T03:19:51.055Z,1010.12
2018-06-27T03:20:51.075Z,1010.05
2018-06-27T03:21:51.102Z,1010.09
2018-06-27T03:22:51.131Z,1010.10
2018-06-27T03:23:51.158Z,1010.10
2018-06-27T03:24:51.168Z,1010.10
2018-06-27T03:25:51.190Z,1010.11
2018-06-27T03:26:51.214Z,1010.11
2018-06-27T03:27:51.231Z,1010.13
2018-06-27T03:28:51.261Z,1010.10
2018-06-27T03:29:51.284Z,1010.15
2018-06-27T03:30:51.306Z,1010.13
2018-06-27T03:31:51.330Z,1010.13
2018-06-27T03:32:51.350Z,1010.09
2018-06-27T03:33:51.436Z,1010.19
2018-06-27T03:34:51.405Z,1010.15
2018-06-27T03:35:51.424Z,1010.13
2018-06-27T03:36:51.449Z,1010.14
2018-06-27T03:37:51.468Z,1010.12
2018-06-27T03:38:51.494Z,1010.16
2018-06-27T03:39:51.519Z,1010.15
2018-06-27T03:40:51.540Z,1010.14
2018-06-27T03:41:51.561Z,1010.16
2018-06-27T03:42:51.583Z,1010.11
2018-06-27T03:43:51.606Z,1010.16
2018-06-27T03:44:51.629Z,1010.12
2018-06-27T03:45:51.658Z,1010.15
2018-06-27T03:46:51.677Z,1010.12
2018-06-27T03:47:51.697Z,1010.11
2018-06-27T03:48:51.721Z,1010.13
2018-06-27T03:49:51.746Z,1010.13
2018-06-27T03:50:51.766Z,1010.14
2018-06-27T03:51:51.793Z,1010.14
2018-06-27T03:52:51.817Z,1010.16
2018-06-27T03:53:51.836Z,1010.15
2018-06-27T03:54:51.861Z,1010.18
2018-06-27T03:55:51.896Z,1010.18
2018-06-27T03:56:51.904Z,1010.15
2018-06-27T03:57:51.923Z,1010.18
2018-06-27T03:58:51.952Z,1010.18
2018-06-27T03:59:51.973Z,1010.17
2018-06-27T04:00:51.995Z,1010.21
2018-06-27T04:01:52.019Z,1010.19
2018-06-27T04:02:52.041Z,1010.20
2018-06-27T04:03:52.062Z,1010.21
2018-06-27T04:04:52.089Z,1010.19
2018-06-27T04:05:52.112Z,1010.20
2018-06-27T04:06:52.137Z,1010.17
2018-06-27T04:07:52.155Z,1010.23
2018-06-27T04:08:52.180Z,1010.22
2018-06-27T04:09:52.202Z,1010.21
2018-06-27T04:10:52.225Z,1010.18
2018-06-27T04:11:52.251Z,1010.20
2018-06-27T04:12:52.360Z,1010.23
2018-06-27T04:13:52.293Z,1010.26
2018-06-27T04:14:52.310Z,1010.30
2018-06-27T04:15:52.338Z,1010.28
2018-06-27T04:16:52.366Z,1010.28
2018-06-27T04:17:52.390Z,1010.28
2018-06-27T04:18:52.411Z,1010.32
2018-06-27T04:19:52.432Z,1010.37
2018-06-27T04:20:52.455Z,1010.38
2018-06-27T04:21:52.479Z,1010.42
2018-06-27T04:22:52.499Z,1010.40
2018-06-27T04:23:52.521Z,1010.46
2018-06-27T04:24:52.540Z,1010.48
2018-06-27T04:25:52.582Z,1010.47
2018-06-27T04:26:52.595Z,1010.47
2018-06-27T04:27:52.624Z,1010.48
2018-06-27T04:28:52.642Z,1010.54
2018-06-27T04:29:52.691Z,1010.51
2018-06-27T04:30:52.695Z,1010.50
2018-06-27T04:31:52.757Z,1010.50
2018-06-27T04:32:52.735Z,1010.51
2018-06-27T04:33:52.763Z,1010.53
2018-06-27T04:34:52.776Z,1010.51
2018-06-27T04:35:52.806Z,1010.53
2018-06-27T04:36:52.846Z,1010.61
2018-06-27T04:37:52.849Z,1010.57
2018-06-27T04:38:52.872Z,1010.61
2018-06-27T04:39:52.902Z,1010.66
2018-06-27T04:40:52.945Z,1010.66
2018-06-27T04:41:52.971Z,1010.65
2018-06-27T04:42:52.967Z,1010.63
2018-06-27T04:43:52.984Z,1010.67
2018-06-27T04:44:53.025Z,1010.67
2018-06-27T04:45:53.042Z,1010.67
2018-06-27T04:46:53.051Z,1010.70
2018-06-27T04:47:53.092Z,1010.67
2018-06-27T04:48:53.131Z,1010.69
2018-06-27T04:49:53.149Z,1010.63
2018-06-27T04:50:53.144Z,1010.67
2018-06-27T04:51:53.170Z,1010.68
2018-06-27T04:52:53.195Z,1010.69
2018-06-27T04:53:53.220Z,1010.73
2018-06-27T04:54:53.309Z,1010.74
2018-06-27T04:55:53.264Z,1010.71
2018-06-27T04:56:53.288Z,1010.68
2018-06-27T04:57:53.322Z,1010.69
2018-06-27T04:58:53.340Z,1010.71
2018-06-27T04:59:53.359Z,1010.71
2018-06-27T05:00:53.378Z,1010.68
2018-06-27T05:01:53.400Z,1010.68
2018-06-27T05:02:53.439Z,1010.66
2018-06-27T05:03:53.443Z,1010.67
2018-06-27T05:04:53.467Z,1010.66
2018-06-27T05:05:53.495Z,1010.65
2018-06-27T05:06:53.528Z,1010.61
2018-06-27T05:07:53.537Z,1010.63
2018-06-27T05:08:53.565Z,1010.62
2018-06-27T05:09:53.586Z,1010.62
2018-06-27T05:10:53.608Z,1010.61
2018-06-27T05:11:53.659Z,1010.61
2018-06-27T05:12:53.652Z,1010.59
2018-06-27T05:13:53.675Z,1010.58
2018-06-27T05:14:53.697Z,1010.61
2018-06-27T05:15:53.734Z,1010.59
2018-06-27T05:16:53.741Z,1010.64
2018-06-27T05:17:53.768Z,1010.63
2018-06-27T05:18:53.798Z,1010.62
2018-06-27T05:19:53.812Z,1010.64
2018-06-27T05:20:53.836Z,1010.62
2018-06-27T05:21:53.961Z,1010.62
2018-06-27T05:22:53.883Z,1010.68
2018-06-27T05:23:53.904Z,1010.68
2018-06-27T05:24:53.932Z,1010.71
2018-06-27T05:25:53.956Z,1010.73
2018-06-27T05:26:53.976Z,1010.67
2018-06-27T05:27:53.999Z,1010.65
2018-06-27T05:28:54.022Z,1010.65
2018-06-27T05:29:54.045Z,1010.67
2018-06-27T05:30:54.068Z,1010.69
2018-06-27T05:31:54.088Z,1010.70
2018-06-27T05:32:54.110Z,1010.68
2018-06-27T05:33:54.136Z,1010.74
2018-06-27T05:34:54.156Z,1010.69
2018-06-27T05:35:54.182Z,1010.72
2018-06-27T05:36:54.204Z,1010.75
2018-06-27T05:37:54.228Z,1010.74
2018-06-27T05:38:54.250Z,1010.73
2018-06-27T05:39:54.276Z,1010.76
2018-06-27T05:40:54.297Z,1010.77
2018-06-27T05:41:54.319Z,1010.74
2018-06-27T05:42:54.345Z,1010.76
2018-06-27T05:43:54.396Z,1010.78
2018-06-27T05:44:54.386Z,1010.79
2018-06-27T05:45:54.416Z,1010.79
2018-06-27T05:46:54.440Z,1010.81
2018-06-27T05:47:54.451Z,1010.81
2018-06-27T05:48:54.480Z,1010.83
2018-06-27T05:49:54.508Z,1010.82
2018-06-27T05:50:54.527Z,1010.83
2018-06-27T05:51:54.551Z,1010.82
2018-06-27T05:52:54.575Z,1010.81
2018-06-27T05:53:54.593Z,1010.87
2018-06-27T05:54:54.629Z,1010.85
2018-06-27T05:55:54.647Z,1010.87
2018-06-27T05:56:54.667Z,1010.86
2018-06-27T05:57:54.691Z,1010.87
2018-06-27T05:58:54.711Z,1010.87
2018-06-27T05:59:54.737Z,1010.86
2018-06-27T06:00:54.759Z,1010.88
2018-06-27T06:01:54.782Z,1010.86
2018-06-27T06:02:54.807Z,1010.85
2018-06-27T06:03:54.827Z,1010.87
2018-06-27T06:04:54.854Z,1010.85
2018-06-27T06:05:54.880Z,1010.83
2018-06-27T06:06:54.895Z,1010.83
2018-06-27T06:07:54.920Z,1010.85
2018-06-27T06:08:54.939Z,1010.86
2018-06-27T06:09:54.970Z,1010.88
2018-06-27T06:10:54.994Z,1010.86
2018-06-27T06:11:55.014Z,1010.89
2018-06-27T06:12:55.038Z,1010.83
2018-06-27T06:13:55.063Z,1010.83
2018-06-27T06:14:55.084Z,1010.85
2018-06-27T06:15:55.109Z,1010.84
2018-06-27T06:16:55.130Z,1010.84
2018-06-27T06:17:55.152Z,1010.81
2018-06-27T06:18:55.208Z,1010.82
2018-06-27T06:19:55.203Z,1010.89
2018-06-27T06:20:55.316Z,1010.85
2018-06-27T06:21:55.246Z,1010.84
2018-06-27T06:22:55.314Z,1010.86
2018-06-27T06:23:55.292Z,1010.82
2018-06-27T06:24:55.314Z,1010.86
2018-06-27T06:25:55.337Z,1010.85
2018-06-27T06:26:55.367Z,1010.82
2018-06-27T06:27:55.386Z,1010.86
2018-06-27T06:28:55.408Z,1010.87
2018-06-27T06:29:55.435Z,1010.86
2018-06-27T06:30:55.472Z,1010.85
2018-06-27T06:31:55.478Z,1010.84
2018-06-27T06:32:55.504Z,1010.82
2018-06-27T06:33:55.527Z,1010.83
2018-06-27T06:34:55.559Z,1010.83
2018-06-27T06:35:55.570Z,1010.80
2018-06-27T06:36:55.592Z,1010.76
2018-06-27T06:37:55.622Z,1010.77
2018-06-27T06:38:55.641Z,1010.77
2018-06-27T06:39:55.666Z,1010.78
2018-06-27T06:40:55.693Z,1010.79
2018-06-27T06:41:55.712Z,1010.79
2018-06-27T06:42:55.735Z,1010.80
2018-06-27T06:43:55.760Z,1010.78
2018-06-27T06:44:55.785Z,1010.79
2018-06-27T06:45:55.808Z,1010.78
2018-06-27T06:46:55.834Z,1010.73
2018-06-27T06:47:55.854Z,1010.76
2018-06-27T06:48:55.878Z,1010.75
2018-06-27T06:49:55.898Z,1010.74
2018-06-27T06:50:55.925Z,1010.77
2018-06-27T06:51:55.949Z,1010.78
2018-06-27T06:52:55.973Z,1010.76
2018-06-27T06:53:55.999Z,1010.76
2018-06-27T06:54:56.019Z,1010.73
2018-06-27T06:55:56.042Z,1010.78
2018-06-27T06:56:56.063Z,1010.79
2018-06-27T06:57:56.100Z,1010.79
2018-06-27T06:58:56.111Z,1010.81
2018-06-27T06:59:56.137Z,1010.77
2018-06-27T07:00:56.162Z,1010.80
2018-06-27T07:01:56.183Z,1010.81
2018-06-27T07:02:56.207Z,1010.79
2018-06-27T07:03:56.229Z,1010.80
2018-06-27T07:04:56.272Z,1010.80
2018-06-27T07:05:56.274Z,1010.81
2018-06-27T07:06:56.302Z,1010.79
2018-06-27T07:07:56.324Z,1010.76
2018-06-27T07:08:56.350Z,1010.76
2018-06-27T07:09:56.371Z,1010.77
2018-06-27T07:10:56.436Z,1010.78
2018-06-27T07:11:56.416Z,1010.83
2018-06-27T07:12:56.439Z,1010.81
2018-06-27T07:13:56.465Z,1010.79
2018-06-27T07:14:56.495Z,1010.80
2018-06-27T07:15:56.510Z,1010.78
2018-06-27T07:16:56.534Z,1010.78
2018-06-27T07:17:56.565Z,1010.80
2018-06-27T07:18:56.584Z,1010.79
2018-06-27T07:19:56.607Z,1010.77
2018-06-27T07:20:56.630Z,1010.79
2018-06-27T07:21:56.670Z,1010.76
2018-06-27T07:22:56.678Z,1010.77
2018-06-27T07:23:56.704Z,1010.72
2018-06-27T07:24:56.722Z,1010.76
2018-06-27T07:25:56.751Z,1010.74
2018-06-27T07:26:56.774Z,1010.69
2018-06-27T07:27:56.798Z,1010.68
2018-06-27T07:28:56.822Z,1010.69
2018-06-27T07:29:56.850Z,1010.69
2018-06-27T07:30:56.868Z,1010.75
2018-06-27T07:31:56.892Z,1010.68
2018-06-27T07:32:56.948Z,1010.69
2018-06-27T07:33:56.939Z,1010.68
2018-06-27T07:34:56.970Z,1010.66
2018-06-27T07:35:57.016Z,1010.64
2018-06-27T07:36:57.011Z,1010.63
2018-06-27T07:37:57.035Z,1010.61
2018-06-27T07:38:57.058Z,1010.63
2018-06-27T07:39:57.078Z,1010.64
2018-06-27T07:40:57.105Z,1010.62
2018-06-27T07:41:57.134Z,1010.58
2018-06-27T07:42:57.153Z,1010.60
2018-06-27T07:43:57.178Z,1010.61
2018-06-27T07:44:57.204Z,1010.56
2018-06-27T07:45:57.224Z,1010.57
2018-06-27T07:46:57.250Z,1010.59
2018-06-27T07:47:57.276Z,1010.56
2018-06-27T07:48:57.299Z,1010.56
2018-06-27T07:49:57.320Z,1010.50
2018-06-27T07:50:57.344Z,1010.51
2018-06-27T07:51:57.365Z,1010.54
2018-06-27T07:52:57.392Z,1010.50
2018-06-27T07:53:57.417Z,1010.51
2018-06-27T07:54:57.440Z,1010.54
2018-06-27T07:55:57.459Z,1010.50
2018-06-27T07:56:57.486Z,1010.45
2018-06-27T07:57:57.513Z,1010.44
2018-06-27T07:58:57.536Z,1010.47
2018-06-27T07:59:57.593Z,1010.48
2018-06-27T08:00:57.584Z,1010.45
2018-06-27T08:01:57.610Z,1010.44
2018-06-27T08:02:57.634Z,1010.43
2018-06-27T08:03:57.654Z,1010.37
2018-06-27T08:04:57.684Z,1010.40
2018-06-27T08:05:57.727Z,1010.41
2018-06-27T08:06:57.731Z,1010.44
2018-06-27T08:07:57.759Z,1010.41
2018-06-27T08:08:57.783Z,1010.42
2018-06-27T08:09:57.802Z,1010.46
2018-06-27T08:10:57.822Z,1010.45
2018-06-27T08:11:57.845Z,1010.45
2018-06-27T08:12:57.876Z,1010.45
2018-06-27T08:13:57.896Z,1010.42
2018-06-27T08:14:57.919Z,1010.41
2018-06-27T08:15:57.943Z,1010.43
2018-06-27T08:16:57.965Z,1010.44
2018-06-27T08:17:58.136Z,1010.43
2018-06-27T08:18:58.019Z,1010.42
2018-06-27T08:19:58.040Z,1010.34
2018-06-27T08:20:58.063Z,1010.33
2018-06-27T08:21:58.088Z,1010.32
2018-06-27T08:22:58.109Z,1010.31
2018-06-27T08:23:58.135Z,1010.28
2018-06-27T08:24:58.171Z,1010.28
2018-06-27T08:25:58.206Z,1010.29
2018-06-27T08:26:58.213Z,1010.28
2018-06-27T08:27:58.231Z,1010.27
2018-06-27T08:28:58.253Z,1010.21
2018-06-27T08:29:58.279Z,1010.19
2018-06-27T08:30:58.315Z,1010.21
2018-06-27T08:31:58.326Z,1010.18
2018-06-27T08:32:58.369Z,1010.21
2018-06-27T08:33:58.378Z,1010.21
2018-06-27T08:34:58.401Z,1010.19
2018-06-27T08:35:58.458Z,1010.15
2018-06-27T08:36:58.453Z,1010.17
2018-06-27T08:37:58.471Z,1010.19
2018-06-27T08:38:58.499Z,1010.18
2018-06-27T08:39:58.521Z,1010.21
2018-06-27T08:40:58.572Z,1010.17
2018-06-27T08:41:58.574Z,1010.14
2018-06-27T08:42:58.592Z,1010.16
2018-06-27T08:43:58.628Z,1010.08
2018-06-27T08:44:58.644Z,1010.11
2018-06-27T08:45:58.669Z,1010.08
2018-06-27T08:46:58.695Z,1010.10
2018-06-27T08:47:58.717Z,1010.09
2018-06-27T08:48:58.746Z,1010.08
2018-06-27T08:49:58.769Z,1010.06
2018-06-27T08:50:58.789Z,1010.05
2018-06-27T08:51:58.808Z,1010.04
2018-06-27T08:52:58.837Z,1010.06
2018-06-27T08:53:58.861Z,1010.06
2018-06-27T08:54:58.886Z,1010.01
2018-06-27T08:55:58.913Z,1010.02
2018-06-27T08:56:58.943Z,1010.04
2018-06-27T08:57:58.978Z,1010.07
2018-06-27T08:58:58.982Z,1010.06
2018-06-27T08:59:59.008Z,1010.08
2018-06-27T09:00:59.032Z,1010.10
2018-06-27T09:01:59.071Z,1010.04
2018-06-27T09:02:59.083Z,1010.09
2018-06-27T09:03:59.105Z,1010.06
2018-06-27T09:04:59.130Z,1010.03
2018-06-27T09:05:59.151Z,1010.00
2018-06-27T09:06:59.201Z,1010.01
2018-06-27T09:07:59.206Z,1010.04
2018-06-27T09:08:59.231Z,1010.03
2018-06-27T09:09:59.249Z,1010.05
2018-06-27T09:10:59.278Z,1010.01
2018-06-27T09:11:59.299Z,1010.00
2018-06-27T09:12:59.325Z,1009.95
2018-06-27T09:13:59.374Z,1009.95
2018-06-27T09:14:59.380Z,1009.98
2018-06-27T09:15:59.395Z,1009.93
2018-06-27T09:16:59.424Z,1009.94
2018-06-27T09:17:59.457Z,1009.96
2018-06-27T09:18:59.482Z,1009.95
2018-06-27T09:19:59.493Z,1009.96
2018-06-27T09:20:59.526Z,1009.89
2018-06-27T09:21:59.541Z,1009.92
2018-06-27T09:22:59.579Z,1009.92
2018-06-27T09:23:59.595Z,1009.95
2018-06-27T09:24:59.617Z,1009.90
2018-06-27T09:25:59.641Z,1009.92
2018-06-27T09:26:59.678Z,1009.96
2018-06-27T09:27:59.689Z,1009.95
2018-06-27T09:28:59.720Z,1009.94
2018-06-27T09:29:59.744Z,1009.93
2018-06-27T09:30:59.764Z,1009.93
2018-06-27T09:31:59.806Z,1009.95
2018-06-27T09:32:59.814Z,1009.88
2018-06-27T09:33:59.883Z,1009.96
2018-06-27T09:34:59.866Z,1009.87
2018-06-27T09:35:59.886Z,1009.91
2018-06-27T09:36:59.910Z,1009.93
2018-06-27T09:37:59.948Z,1009.92
2018-06-27T09:38:59.962Z,1009.91
2018-06-27T09:39:59.980Z,1009.90
2018-06-27T09:41:00.024Z,1009.88
2018-06-27T09:42:00.083Z,1009.88
2018-06-27T09:43:00.061Z,1009.87
2018-06-27T09:44:00.091Z,1009.87
2018-06-27T09:45:00.126Z,1009.85
2018-06-27T09:46:00.135Z,1009.84
2018-06-27T09:47:00.155Z,1009.85
2018-06-27T09:48:00.187Z,1009.79
2018-06-27T09:49:00.220Z,1009.80
2018-06-27T09:50:00.232Z,1009.84
2018-06-27T09:51:00.251Z,1009.85
2018-06-27T09:52:00.286Z,1009.80
2018-06-27T09:53:00.310Z,1009.80
2018-06-27T09:54:00.336Z,1009.79
2018-06-27T09:55:00.356Z,1009.73
2018-06-27T09:56:00.383Z,1009.76
2018-06-27T09:57:00.405Z,1009.79
2018-06-27T09:58:00.430Z,1009.72
2018-06-27T09:59:00.455Z,1009.68
2018-06-27T10:00:00.479Z,1009.74
2018-06-27T10:01:00.508Z,1009.69
2018-06-27T10:02:00.571Z,1009.70
2018-06-27T10:03:00.547Z,1009.68
2018-06-27T10:04:00.605Z,1009.69
2018-06-27T10:05:00.603Z,1009.67
2018-06-27T10:06:00.628Z,1009.70
2018-06-27T10:07:00.653Z,1009.64
2018-06-27T10:08:00.678Z,1009.62
2018-06-27T10:09:00.702Z,1009.61
2018-06-27T10:10:00.725Z,1009.57
2018-06-27T10:11:00.752Z,1009.60
2018-06-27T10:12:00.774Z,1009.60
2018-06-27T10:13:00.807Z,1009.57
2018-06-27T10:14:00.826Z,1009.54
2018-06-27T10:15:00.857Z,1009.54
2018-06-27T10:16:00.888Z,1009.51
2018-06-27T10:17:00.912Z,1009.47
2018-06-27T10:18:00.926Z,1009.50
2018-06-27T10:19:00.952Z,1009.46
2018-06-27T10:20:00.971Z,1009.50
2018-06-27T10:21:00.998Z,1009.47
2018-06-27T10:22:01.042Z,1009.46
2018-06-27T10:23:01.053Z,1009.47
2018-06-27T10:24:01.070Z,1009.42
2018-06-27T10:25:01.099Z,1009.37
2018-06-27T10:26:01.119Z,1009.36
2018-06-27T10:27:01.157Z,1009.39
2018-06-27T10:28:01.175Z,1009.33
2018-06-27T10:29:01.198Z,1009.39
2018-06-27T10:30:01.224Z,1009.35
2018-06-27T10:31:01.248Z,1009.31
2018-06-27T10:32:01.272Z,1009.36
2018-06-27T10:33:01.296Z,1009.34
2018-06-27T10:34:01.324Z,1009.36
2018-06-27T10:35:01.349Z,1009.32
2018-06-27T10:36:01.380Z,1009.29
2018-06-27T10:37:01.398Z,1009.35
2018-06-27T10:38:01.422Z,1009.33
2018-06-27T10:39:01.462Z,1009.36
2018-06-27T10:40:01.480Z,1009.33
2018-06-27T10:41:01.521Z,1009.32
2018-06-27T10:42:01.524Z,1009.29
2018-06-27T10:43:01.545Z,1009.24
2018-06-27T10:44:01.575Z,1009.22
2018-06-27T10:45:01.597Z,1009.24
2018-06-27T10:46:01.620Z,1009.27
2018-06-27T10:47:01.648Z,1009.22
2018-06-27T10:48:01.670Z,1009.24
2018-06-27T10:49:01.703Z,1009.15
2018-06-27T10:50:01.726Z,1009.21
2018-06-27T10:51:01.748Z,1009.16
2018-06-27T10:52:01.776Z,1009.18
2018-06-27T10:53:01.867Z,1009.17
2018-06-27T10:54:01.823Z,1009.12
2018-06-27T10:55:01.881Z,1009.10
2018-06-27T10:56:01.881Z,1009.17
2018-06-27T10:57:01.898Z,1009.16
2018-06-27T10:58:01.922Z,1009.18
2018-06-27T10:59:01.952Z,1009.11
2018-06-27T11:00:01.972Z,1009.11
2018-06-27T11:01:02.063Z,1009.09
2018-06-27T11:02:02.028Z,1009.12
2018-06-27T11:03:02.064Z,1009.08
2018-06-27T11:04:02.078Z,1009.09
2018-06-27T11:05:02.109Z,1009.07
2018-06-27T11:06:02.143Z,1009.06
2018-06-27T11:07:02.171Z,1009.02
2018-06-27T11:08:02.180Z,1008.98
2018-06-27T11:09:02.205Z,1008.95
2018-06-27T11:10:02.232Z,1008.86
2018-06-27T11:11:02.260Z,1008.94
2018-06-27T11:12:02.289Z,1008.88
2018-06-27T11:13:02.311Z,1008.92
2018-06-27T11:14:02.373Z,1008.96
2018-06-27T11:15:02.358Z,1008.95
2018-06-27T11:16:02.384Z,1008.94
2018-06-27T11:17:02.409Z,1008.93
2018-06-27T11:18:02.434Z,1008.93
2018-06-27T11:19:02.463Z,1008.94
2018-06-27T11:20:02.486Z,1008.87
2018-06-27T11:21:02.510Z,1008.87
2018-06-27T11:22:02.532Z,1008.91
2018-06-27T11:23:02.567Z,1008.90
2018-06-27T11:24:02.587Z,1008.87
2018-06-27T11:25:02.611Z,1008.91
2018-06-27T11:26:02.638Z,1008.89
2018-06-27T11:27:02.739Z,1008.91
2018-06-27T11:28:02.690Z,1008.87
2018-06-27T11:29:02.712Z,1008.87
2018-06-27T11:30:02.736Z,1008.86
2018-06-27T11:31:02.797Z,1008.89
2018-06-27T11:32:02.801Z,1008.83
2018-06-27T11:33:02.838Z,1008.86
2018-06-27T11:34:02.846Z,1008.82
2018-06-27T11:35:02.871Z,1008.84
2018-06-27T11:36:02.893Z,1008.83
2018-06-27T11:37:02.919Z,1008.80
2018-06-27T11:38:02.944Z,1008.79
2018-06-27T11:39:02.966Z,1008.81
2018-06-27T11:40:02.993Z,1008.80
2018-06-27T11:41:03.020Z,1008.80
2018-06-27T11:42:03.047Z,1008.74
2018-06-27T11:43:03.071Z,1008.79
2018-06-27T11:44:03.093Z,1008.75
2018-06-27T11:45:03.126Z,1008.77
2018-06-27T11:46:03.165Z,1008.78
2018-06-27T11:47:03.175Z,1008.72
2018-06-27T11:48:03.205Z,1008.79
2018-06-27T11:49:03.228Z,1008.73
2018-06-27T11:50:03.252Z,1008.75
2018-06-27T11:51:03.273Z,1008.72
2018-06-27T11:52:03.307Z,1008.73
2018-06-27T11:53:03.328Z,1008.70
2018-06-27T11:54:03.354Z,1008.68
2018-06-27T11:55:03.377Z,1008.68
2018-06-27T11:56:03.415Z,1008.67
2018-06-27T11:57:03.446Z,1008.64
2018-06-27T11:58:03.455Z,1008.66
2018-06-27T11:59:03.496Z,1008.64
2018-06-27T12:00:03.514Z,1008.61
2018-06-27T12:01:03.534Z,1008.59
2018-06-27T12:02:03.560Z,1008.57
2018-06-27T12:03:03.586Z,1008.54
2018-06-27T12:04:03.610Z,1008.54
2018-06-27T12:05:03.639Z,1008.58
2018-06-27T12:06:03.669Z,1008.58